createdAt,value
2018-03-15T00:01:58.295Z,2.90
2018-03-15T00:04:25.800Z,2.80
2018-03-15T00:06:53.272Z,2.90
2018-03-15T00:09:21.520Z,2.90
2018-03-15T00:11:48.992Z,2.90
2018-03-15T00:14:16.480Z,2.90
2018-03-15T00:16:43.952Z,2.90
2018-03-15T00:19:11.445Z,2.90
2018-03-15T00:21:39.689Z,2.70
2018-03-15T00:24:07.173Z,2.70
2018-03-15T00:26:34.657Z,2.80
2018-03-15T00:29:02.142Z,2.70
2018-03-15T00:31:30.384Z,2.70
2018-03-15T00:33:57.863Z,2.60
2018-03-15T00:36:25.341Z,2.60
2018-03-15T00:38:52.822Z,2.50
2018-03-15T00:41:20.313Z,2.40
2018-03-15T00:43:47.784Z,2.30
2018-03-15T00:46:16.029Z,2.40
2018-03-15T00:48:43.509Z,2.40
2018-03-15T00:51:10.998Z,2.40
2018-03-15T00:53:38.476Z,2.60
2018-03-15T00:56:06.712Z,2.40
2018-03-15T00:58:34.197Z,2.30
2018-03-15T01:01:01.677Z,2.30
2018-03-15T01:03:29.227Z,2.20
2018-03-15T01:05:56.763Z,2.00
2018-03-15T01:08:24.291Z,1.90
2018-03-15T01:10:51.816Z,1.80
2018-03-15T01:13:19.351Z,1.70
2018-03-15T01:15:46.897Z,1.50
2018-03-15T01:18:14.437Z,1.30
2018-03-15T01:20:42.025Z,1.10
2018-03-15T01:23:09.578Z,1.00
2018-03-15T01:25:37.073Z,0.90
2018-03-15T01:28:04.618Z,0.80
2018-03-15T01:30:32.145Z,0.80
2018-03-15T01:32:59.729Z,0.80
2018-03-15T01:35:27.992Z,0.80
2018-03-15T01:37:55.528Z,0.70
2018-03-15T01:40:23.089Z,0.70
2018-03-15T01:42:50.615Z,0.70
2018-03-15T01:45:18.144Z,0.80
2018-03-15T01:47:45.685Z,0.60
2018-03-15T01:50:13.986Z,0.70
2018-03-15T01:52:41.500Z,0.70
2018-03-15T01:55:09.022Z,0.60
2018-03-15T01:57:36.565Z,0.60
2018-03-15T02:00:04.048Z,0.60
2018-03-15T02:02:32.284Z,0.70
2018-03-15T02:04:59.768Z,0.70
2018-03-15T02:07:27.265Z,0.70
2018-03-15T02:09:54.749Z,0.70
2018-03-15T02:12:22.988Z,0.50
2018-03-15T02:14:50.473Z,0.50
2018-03-15T02:17:17.948Z,0.40
2018-03-15T02:19:45.433Z,0.30
2018-03-15T02:22:12.905Z,0.40
2018-03-15T02:24:41.156Z,0.20
2018-03-15T02:27:09.394Z,0.20
2018-03-15T02:29:37.644Z,0.10
2018-03-15T02:32:05.121Z,0.10
2018-03-15T02:34:32.595Z,0.10
2018-03-15T02:37:00.077Z,0.00
2018-03-15T02:39:27.568Z,-0.10
2018-03-15T02:41:55.804Z,0.00
2018-03-15T02:44:23.309Z,0.00
2018-03-15T02:46:50.772Z,0.00
2018-03-15T02:49:18.264Z,0.10
2018-03-15T02:51:46.508Z,0.00
2018-03-15T02:54:13.993Z,0.00
2018-03-15T02:56:41.468Z,0.00
2018-03-15T02:59:08.948Z,0.20
2018-03-15T03:01:37.194Z,0.10
2018-03-15T03:04:04.669Z,0.10
2018-03-15T03:06:32.144Z,-0.10
2018-03-15T03:08:59.615Z,-0.20
2018-03-15T03:11:27.103Z,-0.20
2018-03-15T03:13:54.588Z,-0.30
2018-03-15T03:16:22.837Z,-0.40
2018-03-15T03:18:50.320Z,-0.40
2018-03-15T03:21:17.791Z,-0.40
2018-03-15T03:23:45.284Z,-0.40
2018-03-15T03:26:13.533Z,-0.50
2018-03-15T03:28:41.016Z,-0.50
2018-03-15T03:31:08.516Z,-0.60
2018-03-15T03:33:36.752Z,-0.80
2018-03-15T03:39:05.316Z,-0.90
2018-03-15T03:41:32.788Z,-0.90
2018-03-15T03:44:00.277Z,-0.90
2018-03-15T03:46:28.526Z,-0.80
2018-03-15T03:48:55.996Z,-0.90
2018-03-15T03:51:23.477Z,-0.90
2018-03-15T03:53:50.968Z,-0.80
2018-03-15T03:56:19.236Z,-0.80
2018-03-15T03:58:46.709Z,-0.80
2018-03-15T04:01:14.191Z,-0.90
2018-03-15T04:09:46.393Z,-0.80
2018-03-15T04:12:13.869Z,-0.90
2018-03-15T04:14:41.356Z,-0.80
2018-03-15T04:17:08.822Z,-0.80
2018-03-15T04:19:36.312Z,-0.80
2018-03-15T04:22:03.787Z,-0.80
2018-03-15T04:24:31.268Z,-0.70
2018-03-15T04:26:59.517Z,-0.70
2018-03-15T04:29:27.003Z,-0.70
2018-03-15T04:31:54.475Z,-0.70
2018-03-15T04:34:21.960Z,-0.80
2018-03-15T04:36:50.204Z,-0.80
2018-03-15T04:39:17.689Z,-0.80
2018-03-15T04:41:45.161Z,-0.70
2018-03-15T04:44:12.644Z,-0.70
2018-03-15T04:46:40.120Z,-0.60
2018-03-15T04:49:07.591Z,-0.50
2018-03-15T04:51:35.844Z,-0.40
2018-03-15T04:54:03.323Z,-0.40
2018-03-15T04:56:30.802Z,-0.30
2018-03-15T04:58:58.288Z,-0.30
2018-03-15T05:01:25.773Z,-0.10
2018-03-15T05:04:03.848Z,0.20
2018-03-15T05:06:31.336Z,0.20
2018-03-15T05:08:58.808Z,0.50
2018-03-15T05:11:26.297Z,0.70
2018-03-15T05:13:54.784Z,0.90
2018-03-15T05:16:23.023Z,1.00
2018-03-15T05:18:50.506Z,1.00
2018-03-15T05:21:17.978Z,1.10
2018-03-15T05:23:45.452Z,1.20
2018-03-15T05:26:12.936Z,1.30
2018-03-15T05:28:41.197Z,1.50
2018-03-15T05:31:08.680Z,1.40
2018-03-15T05:33:36.164Z,1.60
2018-03-15T05:36:03.639Z,1.60
2018-03-15T05:38:31.120Z,1.50
2018-03-15T05:41:02.398Z,1.60
2018-03-15T05:43:29.877Z,1.60
2018-03-15T05:51:43.193Z,1.80
2018-03-15T05:54:10.700Z,1.80
2018-03-15T05:56:38.272Z,1.70
2018-03-15T05:59:05.802Z,1.80
2018-03-15T06:01:33.369Z,1.80
2018-03-15T06:04:00.891Z,2.00
2018-03-15T06:06:41.537Z,1.90
2018-03-15T06:09:09.064Z,2.00
2018-03-15T06:11:37.403Z,2.00
2018-03-15T06:14:04.918Z,2.00
2018-03-15T06:16:32.517Z,2.10
2018-03-15T06:19:04.246Z,2.30
2018-03-15T06:21:31.788Z,2.40
2018-03-15T06:23:59.391Z,2.40
2018-03-15T06:26:26.956Z,2.40
2018-03-15T06:28:54.488Z,2.40
2018-03-15T06:31:22.010Z,2.40
2018-03-15T06:33:49.556Z,2.40
2018-03-15T06:36:17.857Z,2.50
2018-03-15T06:38:45.382Z,2.50
2018-03-15T06:41:12.917Z,2.70
2018-03-15T06:43:40.450Z,2.90
2018-03-15T06:46:07.981Z,3.20
2018-03-15T06:48:36.333Z,3.60
2018-03-15T06:51:03.862Z,3.60
2018-03-15T06:53:31.456Z,3.80
2018-03-15T06:55:58.981Z,3.80
2018-03-15T06:58:27.236Z,3.80
2018-03-15T07:00:55.699Z,3.80
2018-03-15T07:03:23.225Z,4.20
2018-03-15T07:05:52.558Z,3.90
2018-03-15T07:08:20.828Z,4.80
2018-03-15T07:10:49.118Z,5.50
2018-03-15T07:13:17.411Z,5.50
2018-03-15T07:15:45.722Z,5.20
2018-03-15T07:18:13.250Z,5.20
2018-03-15T07:23:14.912Z,4.70
2018-03-15T07:25:42.429Z,4.60
2018-03-15T07:28:09.935Z,5.10
2018-03-15T07:30:37.444Z,5.60
2018-03-15T07:33:20.237Z,5.90
2018-03-15T07:35:48.582Z,5.80
2018-03-15T07:38:16.088Z,5.80
2018-03-15T07:40:43.710Z,6.00
2018-03-15T07:43:11.256Z,5.40
2018-03-15T07:45:38.781Z,5.40
2018-03-15T07:48:06.293Z,5.80
2018-03-15T07:50:33.821Z,6.90
2018-03-15T07:53:02.113Z,7.40
2018-03-15T07:55:29.650Z,7.40
2018-03-15T07:57:57.282Z,7.50
2018-03-15T08:00:25.714Z,7.50
2018-03-15T08:02:53.212Z,8.50
2018-03-15T08:05:21.467Z,9.30
2018-03-15T08:07:48.980Z,9.30
2018-03-15T08:10:16.491Z,10.00
2018-03-15T08:12:44.034Z,8.80
2018-03-15T08:15:11.556Z,7.60
2018-03-15T08:17:39.062Z,7.00
2018-03-15T08:20:06.585Z,7.40
2018-03-15T08:22:34.139Z,8.30
2018-03-15T08:25:01.646Z,7.30
2018-03-15T08:27:29.160Z,8.00
2018-03-15T08:29:56.665Z,7.90
2018-03-15T08:32:24.194Z,9.40
2018-03-15T08:34:51.719Z,10.80
2018-03-15T08:37:19.236Z,10.40
2018-03-15T08:39:46.772Z,12.00
2018-03-15T08:42:14.305Z,12.90
2018-03-15T08:44:41.869Z,12.30
2018-03-15T08:47:09.385Z,12.90
2018-03-15T08:49:36.908Z,10.90
2018-03-15T08:52:04.438Z,12.60
2018-03-15T08:54:32.737Z,10.30
2018-03-15T08:57:00.245Z,10.30
2018-03-15T08:59:27.757Z,12.40
2018-03-15T09:01:55.270Z,11.40
2018-03-15T09:04:22.795Z,12.10
2018-03-15T09:06:50.463Z,13.70
2018-03-15T09:09:17.988Z,11.90
2018-03-15T09:11:45.510Z,10.90
2018-03-15T09:14:13.037Z,10.00
2018-03-15T09:16:40.562Z,11.80
2018-03-15T09:19:08.845Z,12.80
2018-03-15T09:21:36.423Z,12.80
2018-03-15T09:24:03.922Z,13.90
2018-03-15T09:26:31.486Z,11.20
2018-03-15T09:28:59.830Z,11.70
2018-03-15T09:31:27.291Z,10.50
2018-03-15T09:33:54.886Z,9.70
2018-03-15T09:36:22.436Z,10.80
2018-03-15T09:38:49.942Z,10.90
2018-03-15T09:41:18.228Z,10.50
2018-03-15T09:43:46.526Z,11.50
2018-03-15T09:46:14.083Z,11.50
2018-03-15T09:48:41.607Z,9.50
2018-03-15T09:51:09.168Z,10.00
2018-03-15T09:53:36.694Z,9.90
2018-03-15T09:56:04.196Z,10.00
2018-03-15T09:58:31.833Z,11.40
2018-03-15T10:00:59.357Z,13.00
2018-03-15T10:03:26.884Z,14.10
2018-03-15T10:05:56.031Z,14.50
2018-03-15T10:08:25.619Z,14.50
2018-03-15T10:10:53.930Z,16.50
2018-03-15T10:13:21.486Z,16.50
2018-03-15T10:15:49.775Z,15.60
2018-03-15T10:18:18.070Z,17.80
2018-03-15T10:20:45.614Z,17.80
2018-03-15T10:23:13.885Z,17.80
2018-03-15T10:25:41.431Z,17.00
2018-03-15T10:28:08.965Z,17.10
2018-03-15T10:30:37.254Z,16.20
2018-03-15T10:33:11.211Z,17.80
2018-03-15T10:35:38.733Z,17.80
2018-03-15T10:38:06.248Z,18.60
2018-03-15T10:40:33.778Z,18.40
2018-03-15T10:43:02.116Z,18.70
2018-03-15T10:45:29.663Z,18.60
2018-03-15T10:47:57.206Z,16.60
2018-03-15T10:50:24.689Z,15.60
2018-03-15T10:52:53.003Z,13.70
2018-03-15T10:55:20.528Z,13.60
2018-03-15T10:57:48.070Z,12.10
2018-03-15T11:00:16.372Z,13.20
2018-03-15T11:02:46.836Z,13.30
2018-03-15T11:05:20.735Z,11.40
2018-03-15T11:07:54.008Z,11.40
2018-03-15T11:10:21.560Z,12.50
2018-03-15T11:12:49.107Z,12.60
2018-03-15T11:15:17.412Z,13.20
2018-03-15T11:17:45.703Z,11.80
2018-03-15T11:20:13.986Z,13.00
2018-03-15T11:22:41.496Z,12.90
2018-03-15T11:25:09.037Z,13.20
2018-03-15T11:27:36.551Z,13.00
2018-03-15T11:30:04.089Z,13.70
2018-03-15T11:32:31.610Z,14.40
2018-03-15T11:34:59.134Z,14.90
2018-03-15T11:37:26.696Z,13.60
2018-03-15T11:39:54.602Z,12.40
2018-03-15T11:42:22.119Z,12.60
2018-03-15T11:44:49.641Z,13.50
2018-03-15T11:47:17.249Z,13.10
2018-03-15T11:49:44.803Z,13.40
2018-03-15T11:52:13.069Z,12.60
2018-03-15T11:54:40.565Z,12.60
2018-03-15T11:57:08.110Z,11.80
2018-03-15T11:59:35.758Z,12.00
2018-03-15T12:02:03.301Z,12.20
2018-03-15T12:04:30.857Z,12.10
2018-03-15T12:06:58.382Z,12.60
2018-03-15T12:09:25.912Z,13.50
2018-03-15T12:11:53.478Z,13.70
2018-03-15T12:14:21.069Z,14.50
2018-03-15T12:16:48.605Z,14.70
2018-03-15T12:19:16.152Z,13.30
2018-03-15T12:21:43.662Z,12.70
2018-03-15T12:24:11.202Z,13.10
2018-03-15T12:26:38.722Z,12.80
2018-03-15T12:29:06.308Z,12.90
2018-03-15T12:31:34.592Z,13.30
2018-03-15T12:34:02.874Z,14.40
2018-03-15T12:36:30.395Z,14.40
2018-03-15T12:38:57.941Z,13.90
2018-03-15T12:41:25.510Z,13.90
2018-03-15T12:43:53.026Z,14.50
2018-03-15T12:46:20.554Z,15.00
2018-03-15T12:48:48.061Z,15.40
2018-03-15T12:51:15.572Z,13.60
2018-03-15T12:53:43.864Z,15.30
2018-03-15T12:56:12.132Z,14.20
2018-03-15T12:58:39.637Z,14.20
2018-03-15T13:01:07.928Z,15.60
2018-03-15T13:03:35.468Z,15.70
2018-03-15T13:06:02.990Z,15.30
2018-03-15T13:08:30.516Z,15.70
2018-03-15T13:10:58.057Z,15.20
2018-03-15T13:13:25.649Z,16.10
2018-03-15T13:15:53.238Z,15.80
2018-03-15T13:18:21.543Z,15.20
2018-03-15T13:20:49.814Z,16.00
2018-03-15T13:23:17.354Z,16.00
2018-03-15T13:25:44.869Z,15.50
2018-03-15T13:28:12.394Z,15.10
2018-03-15T13:30:39.910Z,15.90
2018-03-15T13:33:08.184Z,14.30
2018-03-15T13:35:35.702Z,14.40
2018-03-15T13:38:03.277Z,15.20
2018-03-15T13:40:30.785Z,15.40
2018-03-15T13:42:58.313Z,14.70
2018-03-15T13:45:25.833Z,14.80
2018-03-15T13:47:53.361Z,14.00
2018-03-15T13:50:20.882Z,13.30
2018-03-15T13:52:48.471Z,14.00
2018-03-15T13:55:16.783Z,14.60
2018-03-15T13:57:44.325Z,14.60
2018-03-15T14:00:12.576Z,14.20
2018-03-15T14:02:40.164Z,14.20
2018-03-15T14:05:07.682Z,12.50
2018-03-15T14:07:35.392Z,12.20
2018-03-15T14:10:02.925Z,11.80
2018-03-15T14:12:30.436Z,11.80
2018-03-15T14:14:58.008Z,12.20
2018-03-15T14:17:25.636Z,11.50
2018-03-15T14:19:53.141Z,11.00
2018-03-15T14:22:20.673Z,10.90
2018-03-15T14:24:48.182Z,11.00
2018-03-15T14:27:15.826Z,11.00
2018-03-15T14:29:44.506Z,10.90
2018-03-15T14:32:12.699Z,10.90
2018-03-15T14:34:40.179Z,10.80
2018-03-15T14:37:07.682Z,11.00
2018-03-15T14:39:35.213Z,10.70
2018-03-15T14:42:03.873Z,10.60
2018-03-15T14:44:32.193Z,10.40
2018-03-15T14:47:00.506Z,10.30
2018-03-15T14:49:28.103Z,10.20
2018-03-15T14:51:55.631Z,10.30
2018-03-15T14:54:23.185Z,10.20
2018-03-15T14:56:50.715Z,10.20
2018-03-15T14:59:19.010Z,10.10
2018-03-15T15:01:47.518Z,10.10
2018-03-15T15:04:15.083Z,10.10
2018-03-15T15:06:42.610Z,10.20
2018-03-15T15:09:10.146Z,10.00
2018-03-15T15:11:37.629Z,10.00
2018-03-15T15:14:05.948Z,9.90
2018-03-15T15:16:33.456Z,9.90
2018-03-15T15:19:00.990Z,9.90
2018-03-15T15:21:28.934Z,9.90
2018-03-15T15:23:56.513Z,9.90
2018-03-15T15:26:24.063Z,9.80
2018-03-15T15:28:51.601Z,9.80
2018-03-15T15:31:19.940Z,9.80
2018-03-15T15:33:47.555Z,9.70
2018-03-15T15:36:15.078Z,9.70
2018-03-15T15:38:42.605Z,9.70
2018-03-15T15:41:10.108Z,9.70
2018-03-15T15:43:37.629Z,9.60
2018-03-15T15:46:05.183Z,9.60
2018-03-15T15:48:33.474Z,9.60
2018-03-15T15:51:01.770Z,9.60
2018-03-15T15:53:29.317Z,9.60
2018-03-15T15:55:57.618Z,9.40
2018-03-15T15:58:25.966Z,9.40
2018-03-15T16:00:53.487Z,9.40
2018-03-15T16:03:20.998Z,9.40
2018-03-15T16:05:48.516Z,9.40
2018-03-15T16:08:16.809Z,9.30
2018-03-15T16:10:45.173Z,9.30
2018-03-15T16:13:12.698Z,9.30
2018-03-15T16:15:40.287Z,9.40
2018-03-15T16:18:07.812Z,9.30
2018-03-15T16:20:36.164Z,9.30
2018-03-15T16:23:03.657Z,9.20
2018-03-15T16:25:31.961Z,9.20
2018-03-15T16:28:00.240Z,9.20
2018-03-15T16:30:28.569Z,9.10
2018-03-15T16:32:56.084Z,9.10
2018-03-15T16:35:23.626Z,9.10
2018-03-15T16:37:51.401Z,9.10
2018-03-15T16:40:18.914Z,9.00
2018-03-15T16:42:46.453Z,9.00
2018-03-15T16:45:13.978Z,9.00
2018-03-15T16:47:41.513Z,8.90
2018-03-15T16:50:09.022Z,8.90
2018-03-15T16:52:36.542Z,8.90
2018-03-15T16:55:04.060Z,8.90
2018-03-15T16:57:32.336Z,8.80
2018-03-15T17:00:00.667Z,8.80
2018-03-15T17:02:28.991Z,8.70
2018-03-15T17:04:56.510Z,8.70
2018-03-15T17:07:24.293Z,8.70
2018-03-15T17:09:55.352Z,8.70
2018-03-15T17:12:22.837Z,8.70
2018-03-15T17:14:50.360Z,8.60
2018-03-15T17:17:18.695Z,8.60
2018-03-15T17:19:46.243Z,8.60
2018-03-15T17:22:14.517Z,8.60
2018-03-15T17:24:42.025Z,8.50
2018-03-15T17:27:09.558Z,8.50
2018-03-15T17:29:37.846Z,8.50
2018-03-15T17:32:06.131Z,8.50
2018-03-15T17:34:34.404Z,8.40
2018-03-15T17:37:01.904Z,8.40
2018-03-15T17:39:29.416Z,8.40
2018-03-15T17:41:58.096Z,8.40
2018-03-15T17:44:26.002Z,8.30
2018-03-15T17:46:53.524Z,8.30
2018-03-15T17:49:21.046Z,8.40
2018-03-15T17:51:48.661Z,8.40
2018-03-15T17:54:16.944Z,8.30
2018-03-15T17:56:45.301Z,8.20
2018-03-15T17:59:12.829Z,8.20
2018-03-15T18:01:40.367Z,8.20
2018-03-15T18:04:08.647Z,8.20
2018-03-15T18:06:36.150Z,8.20
2018-03-15T18:09:03.658Z,8.20
2018-03-15T18:11:31.196Z,8.20
2018-03-15T18:13:58.727Z,8.10
2018-03-15T18:16:26.267Z,8.10
2018-03-15T18:18:53.793Z,8.10
2018-03-15T18:21:22.106Z,8.10
2018-03-15T18:23:49.615Z,8.10
2018-03-15T18:26:17.156Z,8.00
2018-03-15T18:28:44.650Z,8.00
2018-03-15T18:31:12.194Z,8.00
2018-03-15T18:33:39.692Z,8.00
2018-03-15T18:36:07.240Z,8.00
2018-03-15T18:38:34.765Z,8.00
2018-03-15T18:41:03.048Z,7.90
2018-03-15T18:43:31.310Z,8.00
2018-03-15T18:45:58.829Z,7.90
2018-03-15T18:48:27.163Z,7.90
2018-03-15T18:50:56.958Z,7.90
2018-03-15T18:53:24.476Z,7.90
2018-03-15T18:55:52.233Z,7.90
2018-03-15T18:58:19.777Z,7.80
2018-03-15T19:00:47.428Z,7.80
2018-03-15T19:03:15.714Z,7.80
2018-03-15T19:05:43.985Z,7.80
2018-03-15T19:08:11.513Z,7.80
2018-03-15T19:10:39.050Z,7.80
2018-03-15T19:13:07.385Z,7.80
2018-03-15T19:15:34.960Z,7.80
2018-03-15T19:18:02.491Z,7.80
2018-03-15T19:20:30.024Z,7.80
2018-03-15T19:22:58.658Z,7.80
2018-03-15T19:25:27.470Z,7.70
2018-03-15T19:27:55.148Z,7.70
2018-03-15T19:30:22.827Z,7.70
2018-03-15T19:32:52.514Z,7.60
2018-03-15T19:35:22.108Z,7.60
2018-03-15T19:37:49.792Z,7.50
2018-03-15T19:40:17.438Z,7.60
2018-03-15T19:42:44.973Z,7.60
2018-03-15T19:45:12.508Z,7.50
2018-03-15T19:47:40.118Z,7.50
2018-03-15T19:50:07.650Z,7.40
2018-03-15T19:52:35.264Z,7.40
2018-03-15T19:55:02.824Z,7.40
2018-03-15T19:57:30.348Z,7.30
2018-03-15T19:59:57.857Z,7.30
2018-03-15T20:02:26.180Z,7.30
2018-03-15T20:04:53.705Z,7.30
2018-03-15T20:07:22.050Z,7.30
2018-03-15T20:09:49.646Z,7.30
2018-03-15T20:12:17.198Z,7.30
2018-03-15T20:14:44.737Z,7.40
2018-03-15T20:17:12.295Z,7.30
2018-03-15T20:19:39.826Z,7.30
2018-03-15T20:22:07.374Z,7.30
2018-03-15T20:24:35.021Z,7.30
2018-03-15T20:27:02.531Z,7.20
2018-03-15T20:29:30.035Z,7.20
2018-03-15T20:31:57.600Z,7.10
2018-03-15T20:34:25.118Z,7.20
2018-03-15T20:36:52.646Z,7.30
2018-03-15T20:39:25.783Z,7.30
2018-03-15T20:41:53.316Z,7.30
2018-03-15T20:44:20.810Z,7.30
2018-03-15T20:46:54.790Z,7.30
2018-03-15T20:49:22.527Z,7.30
2018-03-15T20:51:50.121Z,7.30
2018-03-15T20:54:17.661Z,7.30
2018-03-15T20:56:45.264Z,7.20
2018-03-15T20:59:13.372Z,7.20
2018-03-15T21:01:41.128Z,7.10
2018-03-15T21:04:09.829Z,7.10
2018-03-15T21:06:37.630Z,7.10
2018-03-15T21:09:06.209Z,7.10
2018-03-15T21:11:33.850Z,7.10
2018-03-15T21:14:01.378Z,7.10
2018-03-15T21:16:28.878Z,7.10
2018-03-15T21:18:57.160Z,7.00
2018-03-15T21:21:33.432Z,7.00
2018-03-15T21:24:00.990Z,7.00
2018-03-15T21:26:28.494Z,7.00
2018-03-15T21:28:56.110Z,7.00
2018-03-15T21:31:23.645Z,7.00
2018-03-15T21:33:51.200Z,7.00
2018-03-15T21:36:19.486Z,7.00
2018-03-15T21:38:47.773Z,7.00
2018-03-15T21:41:16.081Z,7.00
2018-03-15T21:43:43.619Z,6.90
2018-03-15T21:46:11.163Z,6.90
2018-03-15T21:48:38.793Z,6.90
2018-03-15T21:51:06.296Z,6.90
2018-03-15T21:53:33.841Z,6.90
2018-03-15T21:56:01.374Z,6.80
2018-03-15T21:58:30.137Z,6.80
2018-03-15T22:00:57.641Z,6.90
2018-03-15T22:03:25.513Z,7.00
2018-03-15T22:05:53.056Z,6.90
2018-03-15T22:08:20.656Z,6.90
2018-03-15T22:10:48.216Z,6.90
2018-03-15T22:13:15.809Z,6.90
2018-03-15T22:15:43.377Z,7.00
2018-03-15T22:18:10.956Z,6.90
2018-03-15T22:20:38.522Z,6.80
2018-03-15T22:23:06.152Z,6.80
2018-03-15T22:25:33.798Z,6.70
2018-03-15T22:28:02.132Z,6.60
2018-03-15T22:30:29.696Z,6.70
2018-03-15T22:32:57.286Z,6.70
2018-03-15T22:35:24.852Z,6.60
2018-03-15T22:37:52.448Z,6.50
2018-03-15T22:40:20.047Z,6.50
2018-03-15T22:42:48.437Z,6.50
2018-03-15T22:45:16.770Z,6.50
2018-03-15T22:47:44.329Z,6.50
2018-03-15T22:50:11.930Z,6.50
2018-03-15T22:52:39.497Z,6.50
2018-03-15T22:55:07.106Z,6.60
2018-03-15T22:57:34.720Z,6.60
2018-03-15T23:00:02.376Z,6.60
2018-03-15T23:02:29.983Z,6.50
2018-03-15T23:04:57.535Z,6.50
2018-03-15T23:07:25.086Z,6.40
2018-03-15T23:09:52.663Z,6.40
2018-03-15T23:12:20.256Z,6.40
2018-03-15T23:14:47.815Z,6.20
2018-03-15T23:17:15.371Z,6.20
2018-03-15T23:19:43.724Z,6.10
2018-03-15T23:22:11.351Z,6.10
2018-03-15T23:24:38.920Z,6.00
2018-03-15T23:27:06.501Z,6.00
2018-03-15T23:29:34.114Z,6.20
2018-03-15T23:32:01.667Z,6.30
2018-03-15T23:34:29.292Z,6.30
2018-03-15T23:36:57.662Z,6.20
2018-03-15T23:39:25.279Z,6.20
2018-03-15T23:41:52.842Z,6.20
2018-03-15T23:44:20.402Z,6.20
2018-03-15T23:46:48.771Z,6.40
2018-03-15T23:49:16.312Z,6.40
2018-03-15T23:51:43.879Z,6.40
2018-03-15T23:54:11.457Z,6.30
2018-03-15T23:56:39.020Z,6.20
2018-03-15T23:59:06.594Z,6.20
